createdAt,value
2023-03-01T00:01:41.281Z,47.56
2023-03-01T00:04:08.615Z,47.46
2023-03-01T00:06:36.238Z,47.78
2023-03-01T00:09:04.059Z,48.01
2023-03-01T00:11:33.063Z,48.26
2023-03-01T00:14:07.735Z,48.17
2023-03-01T00:16:39.873Z,48.49
2023-03-01T00:19:09.813Z,48.20
2023-03-01T00:21:38.663Z,48.67
2023-03-01T00:24:06.241Z,48.57
2023-03-01T00:26:33.798Z,48.81
2023-03-01T00:29:01.636Z,48.94
2023-03-01T00:31:31.034Z,49.31
2023-03-01T00:34:00.546Z,50.28
2023-03-01T00:36:31.412Z,50.06
2023-03-01T00:38:59.034Z,50.30
2023-03-01T00:41:30.162Z,50.57
2023-03-01T00:43:57.665Z,50.04
2023-03-01T00:46:28.488Z,49.66
2023-03-01T00:48:56.246Z,50.27
2023-03-01T00:51:26.805Z,50.05
2023-03-01T00:53:55.828Z,50.40
2023-03-01T00:56:23.732Z,50.20
2023-03-01T00:58:51.834Z,50.36
2023-03-01T01:01:23.713Z,49.86
2023-03-01T01:03:54.174Z,49.90
2023-03-01T01:06:29.147Z,50.29
2023-03-01T01:08:57.073Z,51.06
2023-03-01T01:11:25.854Z,50.70
2023-03-01T01:13:54.332Z,51.27
2023-03-01T01:16:23.305Z,50.45
2023-03-01T01:18:50.760Z,50.64
2023-03-01T01:21:20.368Z,50.70
2023-03-01T01:23:48.592Z,50.84
2023-03-01T01:26:23.357Z,50.96
2023-03-01T01:28:51.303Z,50.96
2023-03-01T01:31:19.653Z,50.34
2023-03-01T01:33:47.334Z,51.00
2023-03-01T01:36:14.732Z,50.76
2023-03-01T01:38:43.548Z,51.09
2023-03-01T01:41:12.500Z,50.87
2023-03-01T01:43:45.907Z,51.05
2023-03-01T01:46:33.487Z,51.24
2023-03-01T01:49:21.247Z,51.50
2023-03-01T01:51:49.689Z,50.81
2023-03-01T01:54:21.728Z,51.01
2023-03-01T01:56:56.671Z,50.75
2023-03-01T01:59:25.807Z,51.82
2023-03-01T02:01:53.782Z,51.85
2023-03-01T02:04:21.602Z,51.43
2023-03-01T02:07:11.998Z,51.33
2023-03-01T02:09:39.788Z,52.35
2023-03-01T02:12:07.969Z,52.78
2023-03-01T02:14:35.391Z,52.54
2023-03-01T02:17:02.888Z,52.48
2023-03-01T02:20:07.989Z,52.29
2023-03-01T02:22:39.321Z,52.11
2023-03-01T02:25:19.185Z,53.13
2023-03-01T02:27:50.074Z,52.67
2023-03-01T02:30:17.302Z,52.50
2023-03-01T02:32:45.185Z,52.49
2023-03-01T02:35:14.791Z,52.84
2023-03-01T02:37:43.766Z,53.00
2023-03-01T02:40:14.934Z,53.00
2023-03-01T02:42:49.251Z,53.55
2023-03-01T02:45:17.100Z,53.33
2023-03-01T02:47:44.513Z,53.51
2023-03-01T02:50:44.532Z,53.61
2023-03-01T02:53:21.173Z,53.39
2023-03-01T02:55:48.630Z,53.50
2023-03-01T02:58:16.167Z,53.27
2023-03-01T03:00:48.061Z,53.69
2023-03-01T03:03:18.412Z,53.68
2023-03-01T03:05:45.685Z,53.49
2023-03-01T03:08:13.106Z,53.66
2023-03-01T03:10:42.051Z,53.37
2023-03-01T03:13:12.169Z,54.38
2023-03-01T03:15:40.859Z,54.49
2023-03-01T03:18:15.834Z,54.19
2023-03-01T03:20:44.849Z,54.80
2023-03-01T03:23:12.526Z,54.24
2023-03-01T03:25:40.091Z,54.11
2023-03-01T03:28:10.957Z,53.84
2023-03-01T03:30:40.866Z,52.97
2023-03-01T03:33:13.168Z,52.96
2023-03-01T03:35:46.460Z,52.74
2023-03-01T03:38:17.888Z,53.88
2023-03-01T03:41:05.803Z,54.12
2023-03-01T03:43:35.243Z,54.71
2023-03-01T03:46:06.760Z,54.67
2023-03-01T03:48:36.332Z,54.74
2023-03-01T03:51:06.319Z,54.32
2023-03-01T03:53:33.921Z,54.83
2023-03-01T03:56:01.408Z,54.83
2023-03-01T03:58:28.752Z,55.33
2023-03-01T04:00:58.157Z,55.33
2023-03-01T04:03:26.852Z,56.15
2023-03-01T04:05:54.419Z,55.86
2023-03-01T04:08:23.318Z,55.29
2023-03-01T04:10:52.541Z,55.05
2023-03-01T04:13:23.012Z,54.42
2023-03-01T04:15:51.733Z,54.83
2023-03-01T04:18:20.675Z,55.09
2023-03-01T04:20:48.358Z,55.25
2023-03-01T04:23:20.080Z,55.12
2023-03-01T04:25:55.904Z,54.84
2023-03-01T04:28:28.026Z,54.43
2023-03-01T04:30:57.177Z,54.36
2023-03-01T04:33:25.495Z,54.56
2023-03-01T04:35:53.085Z,54.17
2023-03-01T04:38:21.017Z,54.43
2023-03-01T04:40:48.711Z,55.21
2023-03-01T04:43:16.476Z,55.69
2023-03-01T04:45:43.851Z,55.10
2023-03-01T04:48:11.518Z,55.54
2023-03-01T04:50:39.976Z,56.09
2023-03-01T04:53:07.345Z,55.19
2023-03-01T04:55:34.849Z,54.82
2023-03-01T04:58:02.124Z,55.34
2023-03-01T05:00:32.304Z,56.01
2023-03-01T05:03:03.077Z,55.14
2023-03-01T05:05:34.029Z,55.68
2023-03-01T05:08:04.518Z,55.64
2023-03-01T05:10:33.788Z,55.74
2023-03-01T05:13:01.109Z,56.74
2023-03-01T05:15:32.119Z,56.07
2023-03-01T05:18:00.726Z,56.70
2023-03-01T05:20:29.822Z,56.40
2023-03-01T05:23:00.680Z,56.54
2023-03-01T05:25:28.227Z,56.00
2023-03-01T05:27:55.543Z,55.88
2023-03-01T05:30:23.569Z,55.96
2023-03-01T05:32:56.924Z,56.96
2023-03-01T05:35:24.619Z,56.91
2023-03-01T05:37:52.531Z,56.93
2023-03-01T05:40:21.869Z,57.35
2023-03-01T05:42:57.257Z,57.11
2023-03-01T05:45:26.994Z,57.00
2023-03-01T05:47:56.109Z,56.51
2023-03-01T05:50:29.270Z,57.04
2023-03-01T05:53:09.603Z,57.31
2023-03-01T05:55:37.308Z,57.32
2023-03-01T05:58:07.991Z,57.58
2023-03-01T06:00:35.788Z,57.18
2023-03-01T06:03:03.401Z,57.19
2023-03-01T06:05:31.181Z,57.45
2023-03-01T06:08:02.629Z,58.25
2023-03-01T06:10:30.367Z,59.19
2023-03-01T06:12:59.143Z,59.89
2023-03-01T06:15:27.251Z,59.24
2023-03-01T06:18:00.042Z,59.45
2023-03-01T06:20:29.772Z,60.49
2023-03-01T06:22:57.665Z,59.98
2023-03-01T06:25:26.757Z,60.33
2023-03-01T06:27:54.221Z,59.96
2023-03-01T06:30:23.458Z,59.97
2023-03-01T06:32:50.997Z,60.13
2023-03-01T06:35:19.627Z,61.07
2023-03-01T06:37:48.428Z,60.38
2023-03-01T06:40:16.675Z,59.80
2023-03-01T06:42:48.281Z,59.80
2023-03-01T06:45:15.861Z,60.87
2023-03-01T06:47:43.342Z,60.72
2023-03-01T06:50:11.686Z,61.04
2023-03-01T06:52:39.473Z,60.55
2023-03-01T06:55:07.634Z,61.31
2023-03-01T06:57:35.006Z,61.55
2023-03-01T07:00:03.578Z,61.63
2023-03-01T07:02:30.931Z,61.46
2023-03-01T07:04:58.579Z,61.62
2023-03-01T07:07:26.743Z,61.16
2023-03-01T07:09:54.498Z,61.03
2023-03-01T07:12:21.821Z,61.23
2023-03-01T07:14:49.215Z,62.01
2023-03-01T07:17:16.606Z,61.44
2023-03-01T07:19:44.887Z,61.58
2023-03-01T07:22:12.412Z,61.03
2023-03-01T07:24:39.694Z,60.84
2023-03-01T07:27:07.527Z,61.00
2023-03-01T07:29:37.435Z,61.35
2023-03-01T07:32:05.308Z,61.06
2023-03-01T07:34:32.833Z,60.39
2023-03-01T07:37:00.234Z,59.89
2023-03-01T07:39:27.667Z,61.49
2023-03-01T07:41:55.077Z,60.71
2023-03-01T07:44:23.558Z,60.56
2023-03-01T07:46:51.149Z,60.73
2023-03-01T07:49:18.804Z,61.11
2023-03-01T07:51:46.318Z,60.64
2023-03-01T07:54:13.536Z,61.23
2023-03-01T07:56:41.801Z,60.65
2023-03-01T07:59:09.226Z,60.57
2023-03-01T08:01:36.587Z,59.91
2023-03-01T08:04:05.758Z,60.05
2023-03-01T08:06:35.136Z,59.57
2023-03-01T08:09:03.343Z,59.45
2023-03-01T08:11:31.281Z,58.21
2023-03-01T08:13:58.842Z,58.65
2023-03-01T08:16:27.306Z,58.66
2023-03-01T08:18:57.656Z,58.25
2023-03-01T08:21:25.001Z,58.07
2023-03-01T08:23:52.649Z,57.52
2023-03-01T08:26:21.746Z,58.35
2023-03-01T08:28:50.714Z,58.06
2023-03-01T08:31:28.530Z,58.41
2023-03-01T08:33:58.515Z,57.60
2023-03-01T08:36:28.535Z,57.52
2023-03-01T08:38:56.505Z,57.69
2023-03-01T08:41:24.461Z,56.94
2023-03-01T08:43:52.126Z,56.75
2023-03-01T08:46:19.617Z,56.95
2023-03-01T08:48:46.933Z,56.62
2023-03-01T08:51:17.241Z,56.83
2023-03-01T08:53:45.129Z,56.89
2023-03-01T08:56:14.049Z,56.64
2023-03-01T08:58:41.412Z,55.91
2023-03-01T09:01:10.155Z,55.52
2023-03-01T09:03:37.990Z,55.19
2023-03-01T09:06:06.931Z,56.19
2023-03-01T09:08:39.356Z,56.30
2023-03-01T09:11:09.276Z,56.15
2023-03-01T09:13:36.832Z,56.03
2023-03-01T09:16:06.169Z,55.10
2023-03-01T09:18:34.331Z,55.89
2023-03-01T09:21:09.526Z,55.39
2023-03-01T09:23:41.359Z,54.78
2023-03-01T09:26:10.850Z,54.88
2023-03-01T09:28:38.878Z,54.71
2023-03-01T09:31:06.620Z,54.63
2023-03-01T09:33:34.309Z,54.66
2023-03-01T09:36:03.869Z,54.42
2023-03-01T09:38:31.522Z,54.62
2023-03-01T09:40:58.977Z,54.24
2023-03-01T09:43:35.840Z,53.58
2023-03-01T09:46:09.319Z,53.08
2023-03-01T09:48:44.828Z,53.23
2023-03-01T09:51:19.529Z,53.21
2023-03-01T09:53:46.859Z,53.57
2023-03-01T09:56:19.878Z,52.91
2023-03-01T09:58:55.474Z,52.95
2023-03-01T10:02:04.877Z,53.40
2023-03-01T10:04:43.599Z,53.26
2023-03-01T10:07:19.196Z,53.12
2023-03-01T10:09:47.156Z,52.76
2023-03-01T10:12:46.738Z,52.62
2023-03-01T10:15:26.747Z,52.63
2023-03-01T10:17:58.064Z,52.98
2023-03-01T10:20:26.315Z,52.75
2023-03-01T10:22:56.125Z,52.60
2023-03-01T10:25:23.446Z,52.70
2023-03-01T10:27:54.597Z,52.71
2023-03-01T10:30:27.575Z,52.42
2023-03-01T10:32:55.328Z,52.39
2023-03-01T10:35:28.295Z,51.99
2023-03-01T10:38:08.016Z,51.69
2023-03-01T10:40:36.837Z,52.38
2023-03-01T10:43:06.343Z,52.37
2023-03-01T10:45:39.292Z,51.92
2023-03-01T10:48:09.438Z,51.55
2023-03-01T10:50:40.346Z,50.96
2023-03-01T10:53:30.206Z,51.20
2023-03-01T10:56:07.103Z,51.41
2023-03-01T10:58:37.295Z,51.65
2023-03-01T11:01:16.942Z,52.07
2023-03-01T11:03:44.366Z,51.51
2023-03-01T11:06:12.066Z,50.82
2023-03-01T11:08:40.586Z,50.44
2023-03-01T11:11:34.377Z,50.51
2023-03-01T11:14:25.043Z,51.34
2023-03-01T11:17:27.048Z,50.27
2023-03-01T11:20:15.637Z,49.74
2023-03-01T11:22:55.545Z,49.76
2023-03-01T11:25:37.162Z,49.97
2023-03-01T11:28:08.286Z,50.02
2023-03-01T11:31:08.631Z,49.67
2023-03-01T11:33:36.871Z,50.18
2023-03-01T11:36:09.663Z,49.39
2023-03-01T11:38:37.848Z,49.14
2023-03-01T11:41:17.193Z,48.51
2023-03-01T11:44:00.332Z,48.20
2023-03-01T11:46:34.341Z,48.37
2023-03-01T11:49:26.002Z,48.36
2023-03-01T11:52:16.451Z,48.24
2023-03-01T11:55:17.993Z,47.64
2023-03-01T11:58:04.026Z,46.88
2023-03-01T12:00:45.661Z,46.56
2023-03-01T12:03:31.646Z,46.34
2023-03-01T12:06:17.236Z,46.20
2023-03-01T12:09:07.891Z,46.24
2023-03-01T12:12:13.136Z,46.21
2023-03-01T12:14:50.461Z,46.29
2023-03-01T12:17:26.587Z,45.55
2023-03-01T12:20:22.132Z,46.50
2023-03-01T12:23:20.377Z,46.17
2023-03-01T12:26:07.934Z,46.00
2023-03-01T12:28:42.038Z,45.50
2023-03-01T12:31:44.846Z,45.27
2023-03-01T12:34:30.448Z,45.51
2023-03-01T12:37:19.887Z,45.38
2023-03-01T12:39:56.464Z,45.38
2023-03-01T12:42:37.306Z,45.02
2023-03-01T12:45:43.287Z,45.87
2023-03-01T12:48:39.736Z,45.27
2023-03-01T12:51:13.322Z,44.65
2023-03-01T12:53:43.441Z,44.49
2023-03-01T12:56:13.739Z,44.21
2023-03-01T12:59:06.213Z,44.42
2023-03-01T13:01:52.245Z,44.16
2023-03-01T13:04:50.234Z,44.38
2023-03-01T13:07:30.071Z,44.59
2023-03-01T13:10:24.594Z,44.65
2023-03-01T13:13:14.367Z,44.19
2023-03-01T13:15:42.294Z,44.21
2023-03-01T13:18:12.648Z,44.44
2023-03-01T13:20:42.909Z,44.40
2023-03-01T13:23:15.150Z,44.58
2023-03-01T13:26:02.306Z,44.45
2023-03-01T13:28:45.098Z,44.18
2023-03-01T13:31:32.507Z,44.51
2023-03-01T13:34:01.687Z,43.91
2023-03-01T13:36:29.724Z,44.22
2023-03-01T13:39:29.613Z,44.36
2023-03-01T13:41:58.482Z,43.71
2023-03-01T13:44:33.722Z,43.66
2023-03-01T13:47:08.577Z,43.55
2023-03-01T13:50:00.639Z,42.76
2023-03-01T13:52:30.580Z,43.07
2023-03-01T13:54:58.179Z,43.45
2023-03-01T13:57:28.900Z,43.90
2023-03-01T13:59:56.307Z,43.38
2023-03-01T14:02:23.798Z,43.49
2023-03-01T14:05:01.468Z,43.50
2023-03-01T14:07:32.078Z,43.33
2023-03-01T14:10:01.521Z,43.49
2023-03-01T14:13:11.400Z,43.82
2023-03-01T14:15:57.865Z,43.09
2023-03-01T14:18:53.223Z,43.11
2023-03-01T14:21:20.644Z,43.24
2023-03-01T14:23:47.956Z,43.56
2023-03-01T14:26:22.231Z,43.96
2023-03-01T14:28:50.612Z,43.46
2023-03-01T14:31:40.955Z,43.71
2023-03-01T14:34:23.890Z,43.74
2023-03-01T14:36:51.329Z,43.51
2023-03-01T14:39:22.159Z,43.76
2023-03-01T14:41:49.733Z,44.13
2023-03-01T14:44:23.968Z,44.19
2023-03-01T14:46:56.294Z,44.52
2023-03-01T14:49:27.293Z,44.67
2023-03-01T14:52:06.402Z,44.65
2023-03-01T14:54:46.096Z,44.76
2023-03-01T14:57:27.426Z,43.62
2023-03-01T14:59:57.044Z,43.63
2023-03-01T15:02:29.304Z,44.18
2023-03-01T15:05:01.974Z,44.26
2023-03-01T15:07:32.758Z,44.53
2023-03-01T15:10:00.978Z,45.01
2023-03-01T15:12:28.311Z,44.75
2023-03-01T15:15:03.861Z,45.24
2023-03-01T15:17:34.190Z,45.09
2023-03-01T15:20:04.685Z,44.99
2023-03-01T15:22:32.244Z,45.36
2023-03-01T15:25:00.049Z,44.84
2023-03-01T15:27:28.407Z,44.74
2023-03-01T15:30:00.800Z,44.88
2023-03-01T15:32:34.700Z,44.91
2023-03-01T15:35:57.495Z,45.28
2023-03-01T15:38:59.001Z,45.31
2023-03-01T15:41:48.029Z,45.33
2023-03-01T15:44:29.931Z,45.07
2023-03-01T15:47:03.145Z,45.13
2023-03-01T15:49:49.609Z,45.28
2023-03-01T15:52:40.215Z,45.36
2023-03-01T15:55:35.544Z,44.58
2023-03-01T15:58:18.601Z,44.96
2023-03-01T16:01:00.317Z,44.79
2023-03-01T16:03:29.331Z,45.48
2023-03-01T16:05:56.757Z,45.55
2023-03-01T16:08:24.448Z,45.55
2023-03-01T16:10:52.577Z,45.33
2023-03-01T16:13:20.374Z,45.73
2023-03-01T16:15:47.901Z,45.46
2023-03-01T16:18:15.484Z,45.60
2023-03-01T16:20:44.000Z,45.61
2023-03-01T16:23:12.721Z,45.38
2023-03-01T16:25:40.202Z,45.35
2023-03-01T16:28:11.044Z,45.50
2023-03-01T16:30:40.653Z,45.20
2023-03-01T16:33:28.842Z,44.87
2023-03-01T16:35:56.909Z,44.85
2023-03-01T16:38:24.621Z,45.14
2023-03-01T16:40:53.212Z,45.19
2023-03-01T16:43:20.716Z,45.36
2023-03-01T16:45:48.118Z,45.72
2023-03-01T16:48:15.748Z,45.55
2023-03-01T16:50:43.030Z,45.75
2023-03-01T16:53:10.903Z,45.45
2023-03-01T16:55:39.053Z,45.38
2023-03-01T16:58:06.831Z,45.43
2023-03-01T17:00:34.161Z,45.69
2023-03-01T17:03:01.507Z,46.27
2023-03-01T17:05:28.834Z,45.80
2023-03-01T17:07:59.118Z,45.87
2023-03-01T17:10:27.038Z,45.98
2023-03-01T17:12:54.920Z,45.87
2023-03-01T17:15:22.333Z,46.40
2023-03-01T17:17:52.040Z,46.40
2023-03-01T17:20:20.141Z,46.29
2023-03-01T17:22:47.603Z,46.35
2023-03-01T17:25:15.963Z,46.56
2023-03-01T17:27:43.434Z,46.45
2023-03-01T17:30:12.705Z,46.32
2023-03-01T17:32:40.344Z,46.00
2023-03-01T17:35:08.836Z,46.52
2023-03-01T17:37:37.252Z,46.52
2023-03-01T17:40:05.554Z,46.81
2023-03-01T17:42:33.492Z,46.61
2023-03-01T17:45:02.850Z,46.65
2023-03-01T17:47:30.223Z,46.71
2023-03-01T17:49:57.498Z,47.03
2023-03-01T17:52:24.851Z,46.84
2023-03-01T17:54:52.106Z,47.11
2023-03-01T17:57:19.613Z,46.49
2023-03-01T17:59:47.030Z,46.11
2023-03-01T18:02:14.458Z,45.98
2023-03-01T18:04:41.720Z,45.98
2023-03-01T18:07:09.125Z,45.97
2023-03-01T18:09:36.552Z,46.14
2023-03-01T18:12:04.031Z,46.08
2023-03-01T18:14:33.910Z,46.19
2023-03-01T18:17:06.624Z,45.75
2023-03-01T18:19:34.312Z,45.85
2023-03-01T18:22:01.498Z,45.99
2023-03-01T18:24:28.908Z,45.99
2023-03-01T18:26:56.241Z,45.55
2023-03-01T18:29:23.579Z,46.13
2023-03-01T18:31:51.326Z,46.25
2023-03-01T18:34:19.103Z,44.64
2023-03-01T18:37:00.478Z,45.52
2023-03-01T18:39:33.613Z,45.06
2023-03-01T18:42:00.928Z,45.36
2023-03-01T18:44:28.275Z,45.43
2023-03-01T18:46:58.355Z,45.37
2023-03-01T18:49:26.335Z,45.23
2023-03-01T18:51:53.416Z,44.85
2023-03-01T18:54:20.824Z,45.37
2023-03-01T18:56:48.977Z,45.32
2023-03-01T18:59:16.437Z,44.96
2023-03-01T19:01:43.825Z,44.63
2023-03-01T19:04:11.866Z,45.79
2023-03-01T19:06:39.459Z,45.73
2023-03-01T19:09:08.016Z,45.54
2023-03-01T19:11:35.783Z,45.07
2023-03-01T19:14:04.148Z,45.47
2023-03-01T19:16:33.385Z,45.54
2023-03-01T19:19:02.780Z,46.54
2023-03-01T19:21:32.141Z,45.97
2023-03-01T19:24:02.603Z,46.12
2023-03-01T19:26:31.444Z,45.92
2023-03-01T19:28:59.497Z,45.58
2023-03-01T19:31:28.959Z,45.91
2023-03-01T19:34:10.044Z,46.17
2023-03-01T19:36:43.217Z,45.60
2023-03-01T19:39:13.543Z,45.74
2023-03-01T19:41:42.773Z,45.83
2023-03-01T19:44:10.210Z,45.92
2023-03-01T19:46:37.724Z,46.37
2023-03-01T19:49:05.888Z,45.99
2023-03-01T19:51:36.103Z,46.37
2023-03-01T19:54:03.859Z,46.30
2023-03-01T19:56:32.083Z,46.08
2023-03-01T19:59:00.742Z,45.69
2023-03-01T20:01:29.758Z,46.10
2023-03-01T20:03:57.316Z,46.66
2023-03-01T20:06:25.786Z,46.24
2023-03-01T20:08:53.197Z,45.90
2023-03-01T20:11:21.258Z,46.58
2023-03-01T20:13:48.754Z,46.51
2023-03-01T20:16:18.897Z,46.60
2023-03-01T20:18:46.350Z,46.25
2023-03-01T20:21:23.649Z,46.49
2023-03-01T20:23:52.637Z,46.23
2023-03-01T20:26:25.549Z,46.57
2023-03-01T20:28:55.389Z,46.24
2023-03-01T20:31:29.750Z,46.38
2023-03-01T20:33:59.045Z,46.83
2023-03-01T20:36:27.800Z,46.46
2023-03-01T20:38:55.730Z,47.05
2023-03-01T20:41:26.441Z,47.25
2023-03-01T20:43:56.489Z,47.18
2023-03-01T20:46:26.632Z,47.06
2023-03-01T20:48:54.287Z,46.30
2023-03-01T20:51:21.687Z,46.91
2023-03-01T20:53:49.573Z,47.27
2023-03-01T20:56:18.177Z,46.64
2023-03-01T20:59:08.292Z,47.69
2023-03-01T21:01:36.908Z,48.14
2023-03-01T21:04:04.438Z,47.06
2023-03-01T21:06:32.448Z,47.01
2023-03-01T21:09:00.003Z,47.47
2023-03-01T21:11:27.601Z,47.88
2023-03-01T21:13:55.508Z,47.88
2023-03-01T21:16:23.296Z,47.18
2023-03-01T21:18:50.571Z,47.85
2023-03-01T21:21:20.981Z,47.43
2023-03-01T21:23:48.825Z,48.02
2023-03-01T21:26:19.492Z,48.22
2023-03-01T21:28:48.148Z,48.13
2023-03-01T21:31:17.004Z,48.21
2023-03-01T21:33:46.947Z,48.82
2023-03-01T21:36:14.974Z,48.91
2023-03-01T21:38:43.747Z,49.31
2023-03-01T21:41:14.159Z,48.93
2023-03-01T21:43:43.230Z,48.59
2023-03-01T21:46:14.134Z,48.87
2023-03-01T21:48:44.273Z,48.85
2023-03-01T21:51:15.108Z,49.17
2023-03-01T21:53:43.227Z,49.12
2023-03-01T21:56:22.353Z,49.43
2023-03-01T21:58:49.995Z,49.74
2023-03-01T22:01:20.178Z,50.01
2023-03-01T22:03:47.961Z,49.91
2023-03-01T22:06:19.947Z,50.26
2023-03-01T22:08:50.275Z,49.79
2023-03-01T22:11:18.657Z,49.08
2023-03-01T22:13:49.561Z,49.88
2023-03-01T22:16:19.220Z,50.22
2023-03-01T22:18:46.964Z,50.42
2023-03-01T22:21:14.560Z,50.16
2023-03-01T22:23:42.693Z,50.51
2023-03-01T22:26:25.041Z,50.51
2023-03-01T22:28:53.483Z,50.06
2023-03-01T22:31:21.577Z,50.23
2023-03-01T22:33:49.407Z,50.67
2023-03-01T22:36:16.879Z,50.88
2023-03-01T22:38:44.300Z,51.15
2023-03-01T22:41:11.562Z,51.29
2023-03-01T22:43:39.052Z,50.67
2023-03-01T22:46:12.002Z,50.95
2023-03-01T22:48:39.877Z,51.79
2023-03-01T22:51:07.585Z,51.97
2023-03-01T22:53:35.098Z,51.29
2023-03-01T22:56:24.102Z,50.98
2023-03-01T22:58:51.473Z,51.40
2023-03-01T23:01:21.242Z,51.22
2023-03-01T23:03:49.082Z,51.72
2023-03-01T23:06:18.137Z,51.31
2023-03-01T23:08:56.007Z,51.51
2023-03-01T23:11:26.030Z,51.89
2023-03-01T23:13:56.504Z,51.64
2023-03-01T23:16:27.017Z,50.90
2023-03-01T23:18:56.057Z,52.85
2023-03-01T23:21:23.558Z,53.20
2023-03-01T23:23:51.171Z,53.22
2023-03-01T23:26:18.836Z,52.61
2023-03-01T23:28:47.476Z,52.81
2023-03-01T23:31:15.476Z,53.04
2023-03-01T23:33:45.165Z,52.87
2023-03-01T23:36:22.588Z,52.85
2023-03-01T23:38:53.639Z,52.97
2023-03-01T23:41:24.534Z,53.07
2023-03-01T23:43:54.218Z,52.54
2023-03-01T23:46:23.626Z,52.90
2023-03-01T23:48:51.369Z,52.81
2023-03-01T23:51:19.191Z,52.84
2023-03-01T23:53:56.109Z,53.12
2023-03-01T23:56:28.958Z,53.08
2023-03-01T23:58:58.693Z,53.22
